createdAt,value
2023-01-30T00:01:41.817Z,-0.89
2023-01-30T00:04:53.188Z,-0.88
2023-01-30T00:08:01.303Z,-0.90
2023-01-30T00:11:13.584Z,-0.88
2023-01-30T00:14:22.952Z,-0.81
2023-01-30T00:17:31.870Z,-0.78
2023-01-30T00:20:41.458Z,-0.88
2023-01-30T00:23:56.180Z,-1.10
2023-01-30T00:27:05.604Z,-1.27
2023-01-30T00:30:13.306Z,-1.24
2023-01-30T00:33:21.925Z,-1.22
2023-01-30T00:36:33.416Z,-1.39
2023-01-30T00:39:42.686Z,-1.42
2023-01-30T00:43:05.680Z,-1.36
2023-01-30T00:46:35.755Z,-1.36
2023-01-30T00:49:48.906Z,-1.49
2023-01-30T00:53:01.139Z,-1.37
2023-01-30T00:56:08.800Z,-1.43
2023-01-30T00:59:17.227Z,-1.54
2023-01-30T01:02:23.776Z,-1.59
2023-01-30T01:05:37.619Z,-1.52
2023-01-30T01:08:51.830Z,-1.43
2023-01-30T01:12:12.772Z,-1.55
2023-01-30T01:15:20.998Z,-1.53
2023-01-30T01:18:27.734Z,-1.53
2023-01-30T01:21:36.403Z,-1.51
2023-01-30T01:24:45.320Z,-1.56
2023-01-30T01:27:55.014Z,-1.55
2023-01-30T01:31:06.694Z,-1.44
2023-01-30T01:34:14.887Z,-1.40
2023-01-30T01:37:26.372Z,-1.17
2023-01-30T01:40:58.851Z,-0.89
2023-01-30T01:44:09.002Z,-0.83
2023-01-30T01:47:15.783Z,-0.80
2023-01-30T01:50:27.683Z,-0.80
2023-01-30T01:53:39.168Z,-0.77
2023-01-30T01:56:52.237Z,-0.76
2023-01-30T02:00:08.351Z,-0.80
2023-01-30T02:03:23.106Z,-0.88
2023-01-30T02:06:37.531Z,-0.88
2023-01-30T02:09:46.781Z,-0.89
2023-01-30T02:13:13.818Z,-0.94
2023-01-30T02:16:34.414Z,-0.89
2023-01-30T02:19:54.102Z,-1.03
2023-01-30T02:23:30.549Z,-0.91
2023-01-30T02:27:39.460Z,-0.89
2023-01-30T02:31:19.895Z,-1.03
2023-01-30T02:34:50.209Z,-1.17
2023-01-30T02:57:46.678Z,-1.16
2023-01-30T03:37:16.441Z,-0.41
2023-01-30T03:46:11.413Z,-0.40
2023-01-30T04:50:07.820Z,0.72
2023-01-30T04:54:07.827Z,0.81
2023-01-30T05:02:45.513Z,0.82
2023-01-30T05:11:48.805Z,0.97
2023-01-30T05:42:53.431Z,1.24
2023-01-30T06:51:19.295Z,1.35
